createdAt,value
2023-01-17T00:02:23.471Z,1.10
2023-01-17T00:05:09.023Z,1.00
2023-01-17T00:07:55.017Z,1.17
2023-01-17T00:10:27.848Z,1.40
2023-01-17T00:13:03.278Z,1.03
2023-01-17T00:15:31.888Z,1.10
2023-01-17T00:17:59.297Z,1.10
2023-01-17T00:20:49.415Z,1.40
2023-01-17T00:23:41.299Z,1.10
2023-01-17T00:26:19.510Z,1.13
2023-01-17T00:28:46.995Z,1.40
2023-01-17T00:31:16.398Z,1.07
2023-01-17T00:33:43.661Z,1.23
2023-01-17T00:36:11.540Z,0.93
2023-01-17T00:38:41.937Z,1.33
2023-01-17T00:41:14.932Z,1.30
2023-01-17T00:44:00.669Z,1.07
2023-01-17T00:46:46.127Z,1.30
2023-01-17T00:49:32.459Z,1.07
2023-01-17T00:52:18.316Z,0.97
2023-01-17T00:55:03.833Z,1.10
2023-01-17T00:57:49.545Z,1.00
2023-01-17T01:00:38.108Z,1.10
2023-01-17T01:03:30.792Z,1.20
2023-01-17T01:06:16.284Z,1.20
2023-01-17T01:09:01.827Z,1.10
2023-01-17T01:11:47.302Z,1.30
2023-01-17T01:14:32.813Z,1.17
2023-01-17T01:17:18.346Z,1.00
2023-01-17T01:20:03.798Z,1.00
2023-01-17T01:22:49.232Z,1.10
2023-01-17T01:25:35.921Z,1.20
2023-01-17T01:28:30.633Z,1.30
2023-01-17T01:31:23.328Z,0.90
2023-01-17T01:33:53.721Z,0.87
2023-01-17T01:36:21.459Z,0.97
2023-01-17T01:38:50.191Z,1.23
2023-01-17T01:41:18.133Z,1.40
2023-01-17T01:43:52.963Z,1.17
2023-01-17T01:46:41.200Z,1.07
2023-01-17T01:49:25.739Z,1.13
2023-01-17T01:51:59.802Z,1.00
2023-01-17T01:54:46.705Z,1.10
2023-01-17T01:57:46.799Z,1.30
2023-01-17T02:12:45.815Z,1.40
2023-01-17T02:15:13.103Z,1.10
2023-01-17T02:22:55.666Z,1.27
2023-01-17T02:29:33.199Z,0.80
2023-01-17T02:33:11.006Z,0.97
2023-01-17T02:35:59.292Z,1.03
2023-01-17T02:39:09.661Z,1.00
2023-01-17T02:41:46.056Z,0.80
2023-01-17T02:44:20.096Z,1.03
2023-01-17T02:46:54.309Z,1.00
2023-01-17T02:49:28.129Z,1.00
2023-01-17T02:52:21.458Z,1.10
2023-01-17T02:55:26.121Z,0.90
2023-01-17T02:58:18.415Z,1.20
2023-01-17T03:01:40.340Z,1.00
2023-01-17T03:04:22.852Z,0.97
2023-01-17T03:07:09.759Z,1.00
2023-01-17T03:09:38.507Z,1.10
2023-01-17T03:12:06.735Z,1.10
2023-01-17T03:14:33.905Z,0.93
2023-01-17T03:17:00.936Z,1.10
2023-01-17T03:19:27.940Z,1.20
2023-01-17T03:21:54.965Z,1.13
2023-01-17T03:24:21.923Z,0.90
2023-01-17T03:26:48.913Z,1.10
2023-01-17T03:29:16.589Z,1.10
2023-01-17T03:31:43.648Z,0.90
2023-01-17T03:34:10.974Z,1.20
2023-01-17T03:36:38.010Z,1.10
2023-01-17T03:39:05.116Z,1.10
2023-01-17T03:41:34.485Z,0.87
2023-01-17T03:44:01.528Z,1.00
2023-01-17T03:46:28.740Z,1.00
2023-01-17T03:48:55.785Z,0.83
2023-01-17T03:51:23.405Z,1.20
2023-01-17T03:53:51.887Z,1.00
2023-01-17T03:56:19.090Z,0.93
2023-01-17T03:58:46.215Z,0.90
2023-01-17T04:01:13.398Z,0.80
2023-01-17T04:03:40.800Z,0.90
2023-01-17T04:06:08.087Z,0.80
2023-01-17T04:08:35.096Z,0.87
2023-01-17T04:11:02.517Z,0.73
2023-01-17T04:13:29.585Z,1.10
2023-01-17T04:15:59.125Z,0.80
2023-01-17T04:18:26.573Z,1.00
2023-01-17T04:20:53.697Z,0.90
2023-01-17T04:23:20.770Z,1.03
2023-01-17T04:25:47.760Z,1.10
2023-01-17T04:28:14.893Z,1.23
2023-01-17T04:30:41.940Z,0.90
2023-01-17T04:33:09.019Z,1.00
2023-01-17T04:35:38.849Z,0.90
2023-01-17T04:38:06.155Z,0.93
2023-01-17T04:40:45.181Z,1.07
2023-01-17T04:43:12.204Z,0.90
2023-01-17T04:45:39.303Z,1.00
2023-01-17T04:48:07.345Z,0.80
2023-01-17T04:50:34.486Z,0.87
2023-01-17T04:53:01.885Z,0.77
2023-01-17T04:55:29.047Z,0.70
2023-01-17T04:57:56.215Z,0.70
2023-01-17T05:00:24.292Z,0.70
2023-01-17T05:02:52.059Z,0.50
2023-01-17T05:05:19.161Z,1.07
2023-01-17T05:07:57.108Z,0.57
2023-01-17T05:10:25.178Z,0.43
2023-01-17T05:12:57.342Z,0.60
2023-01-17T05:15:26.335Z,0.60
2023-01-17T05:17:54.728Z,0.60
2023-01-17T05:20:27.845Z,0.50
2023-01-17T05:22:56.982Z,0.70
2023-01-17T05:25:30.985Z,0.50
2023-01-17T05:28:02.011Z,0.80
2023-01-17T05:30:32.578Z,0.50
2023-01-17T05:33:00.036Z,0.60
2023-01-17T05:35:32.675Z,0.40
2023-01-17T05:37:59.762Z,0.80
2023-01-17T05:40:32.052Z,0.80
2023-01-17T05:43:01.349Z,0.60
2023-01-17T05:45:31.453Z,0.57
2023-01-17T05:47:59.199Z,0.60
2023-01-17T05:50:31.362Z,0.40
2023-01-17T05:53:09.922Z,0.70
2023-01-17T05:55:38.257Z,0.80
2023-01-17T05:58:07.261Z,0.97
2023-01-17T06:00:34.782Z,0.57
2023-01-17T06:03:02.040Z,0.80
2023-01-17T06:05:30.404Z,0.70
2023-01-17T06:07:58.310Z,0.80
2023-01-17T06:10:27.193Z,0.57
2023-01-17T06:13:15.142Z,0.70
2023-01-17T06:15:43.143Z,0.73
2023-01-17T06:18:14.461Z,0.30
2023-01-17T06:20:45.085Z,0.50
2023-01-17T06:23:14.709Z,0.90
2023-01-17T06:25:47.287Z,0.40
2023-01-17T06:28:21.001Z,0.40
2023-01-17T06:30:48.792Z,0.60
2023-01-17T06:33:16.439Z,0.80
2023-01-17T06:35:52.359Z,1.13
2023-01-17T06:38:20.161Z,1.13
2023-01-17T06:40:47.782Z,0.63
2023-01-17T06:43:14.876Z,0.53
2023-01-17T06:45:42.235Z,1.00
2023-01-17T06:48:09.335Z,0.87
2023-01-17T06:50:36.363Z,0.83
2023-01-17T06:53:06.852Z,0.90
2023-01-17T06:55:35.208Z,1.00
2023-01-17T06:58:02.886Z,0.70
2023-01-17T07:00:34.888Z,0.73
2023-01-17T07:03:02.081Z,0.90
2023-01-17T07:05:29.329Z,1.20
2023-01-17T07:07:57.453Z,1.07
2023-01-17T07:10:24.496Z,1.33
2023-01-17T07:12:51.616Z,1.17
2023-01-17T07:15:18.878Z,1.10
2023-01-17T07:18:07.930Z,1.20
2023-01-17T07:20:35.082Z,0.60
2023-01-17T07:23:02.160Z,1.33
2023-01-17T07:25:29.457Z,2.00
2023-01-17T07:27:57.555Z,1.60
2023-01-17T07:30:25.263Z,1.23
2023-01-17T07:32:53.976Z,1.40
2023-01-17T07:35:22.325Z,1.70
2023-01-17T07:37:51.362Z,1.43
2023-01-17T07:40:20.725Z,1.30
2023-01-17T07:42:50.847Z,1.10
2023-01-17T07:45:18.137Z,1.30
2023-01-17T07:47:45.501Z,1.20
2023-01-17T07:50:13.598Z,1.40
2023-01-17T07:52:41.024Z,0.80
2023-01-17T07:55:09.594Z,1.70
2023-01-17T07:57:36.632Z,1.30
2023-01-17T08:00:05.752Z,0.83
2023-01-17T08:02:32.823Z,1.00
2023-01-17T08:04:59.814Z,1.20
2023-01-17T08:07:26.840Z,1.50
2023-01-17T08:09:54.745Z,0.93
2023-01-17T08:12:21.751Z,1.57
2023-01-17T08:14:48.813Z,1.20
2023-01-17T08:17:21.800Z,0.90
2023-01-17T08:19:53.078Z,1.40
2023-01-17T08:22:22.424Z,1.30
2023-01-17T08:24:49.887Z,0.83
2023-01-17T08:27:17.101Z,1.00
2023-01-17T08:29:47.218Z,0.40
2023-01-17T08:32:15.799Z,1.17
2023-01-17T08:34:42.880Z,0.73
2023-01-17T08:37:09.903Z,1.00
2023-01-17T08:39:37.030Z,0.80
2023-01-17T08:42:04.347Z,0.93
2023-01-17T08:44:31.466Z,1.30
2023-01-17T08:46:59.080Z,1.20
2023-01-17T08:49:28.303Z,0.80
2023-01-17T08:51:55.563Z,0.90
2023-01-17T08:54:22.962Z,0.90
2023-01-17T08:56:52.691Z,0.60
2023-01-17T08:59:19.770Z,0.80
2023-01-17T09:01:46.994Z,0.50
2023-01-17T09:04:15.303Z,0.60
2023-01-17T09:06:48.401Z,0.70
2023-01-17T09:09:18.822Z,0.40
2023-01-17T09:11:45.857Z,0.60
2023-01-17T09:14:13.818Z,0.90
2023-01-17T09:16:40.898Z,0.47
2023-01-17T09:19:08.899Z,0.40
2023-01-17T09:21:36.150Z,0.43
2023-01-17T09:24:03.461Z,0.40
2023-01-17T09:26:31.321Z,0.50
2023-01-17T09:28:58.776Z,0.50
2023-01-17T09:31:29.737Z,0.30
2023-01-17T09:33:58.760Z,0.60
2023-01-17T09:36:28.919Z,0.40
2023-01-17T09:38:58.808Z,0.30
2023-01-17T09:41:56.813Z,0.30
2023-01-17T09:44:51.565Z,0.20
2023-01-17T09:47:46.073Z,0.30
2023-01-17T09:50:25.696Z,0.10
2023-01-17T09:53:14.731Z,0.30
2023-01-17T09:55:52.558Z,0.30
2023-01-17T09:58:53.225Z,0.30
2023-01-17T10:02:23.813Z,0.40
2023-01-17T10:06:07.305Z,0.23
2023-01-17T10:09:13.438Z,0.40
2023-01-17T10:12:11.346Z,0.40
2023-01-17T10:15:14.893Z,0.40
2023-01-17T10:18:30.000Z,0.47
2023-01-17T10:21:13.074Z,0.30
2023-01-17T10:24:10.919Z,0.43
2023-01-17T10:26:38.927Z,0.30
2023-01-17T10:29:20.150Z,0.40
2023-01-17T10:32:02.123Z,0.20
2023-01-17T10:34:44.151Z,0.30
2023-01-17T10:37:30.273Z,0.50
2023-01-17T10:40:38.346Z,1.10
2023-01-17T10:43:30.666Z,11.23
2023-01-17T10:46:01.370Z,0.70
2023-01-17T10:48:44.101Z,0.30
2023-01-17T10:52:00.692Z,1.23
2023-01-17T10:55:08.662Z,0.30
2023-01-17T10:57:44.906Z,1.00
2023-01-17T11:01:00.248Z,0.40
2023-01-17T11:03:28.683Z,0.40
2023-01-17T11:06:16.032Z,0.50
2023-01-17T11:08:57.366Z,0.77
2023-01-17T11:11:32.343Z,0.33
2023-01-17T11:14:24.689Z,0.33
2023-01-17T11:17:06.615Z,0.20
2023-01-17T11:19:39.368Z,0.40
2023-01-17T11:22:13.860Z,0.20
2023-01-17T11:25:00.108Z,0.10
2023-01-17T11:27:41.136Z,0.20
2023-01-17T11:30:18.373Z,0.20
2023-01-17T11:33:03.150Z,0.30
2023-01-17T11:35:45.150Z,0.40
2023-01-17T11:38:25.534Z,0.20
2023-01-17T11:41:15.791Z,0.40
2023-01-17T11:43:55.710Z,0.30
2023-01-17T11:46:23.927Z,0.17
2023-01-17T11:48:57.170Z,0.13
2023-01-17T11:51:42.557Z,0.40
2023-01-17T11:54:28.466Z,0.30
2023-01-17T11:57:02.314Z,0.20
2023-01-17T11:59:35.254Z,0.70
2023-01-17T12:02:39.682Z,0.17
2023-01-17T12:06:13.751Z,0.50
2023-01-17T12:09:23.087Z,0.50
2023-01-17T12:12:45.564Z,0.53
2023-01-17T12:15:50.877Z,0.60
2023-01-17T12:19:18.402Z,0.70
2023-01-17T12:22:04.714Z,0.50
2023-01-17T12:24:45.098Z,0.70
2023-01-17T12:28:08.711Z,0.67
2023-01-17T12:31:03.195Z,1.03
2023-01-17T12:33:45.913Z,0.77
2023-01-17T12:36:54.112Z,0.80
2023-01-17T12:39:30.910Z,0.70
2023-01-17T12:42:20.448Z,0.77
2023-01-17T12:45:11.884Z,0.67
2023-01-17T12:47:49.008Z,0.87
2023-01-17T12:51:06.413Z,0.63
2023-01-17T12:54:05.337Z,0.70
2023-01-17T12:57:09.041Z,0.47
2023-01-17T13:00:08.275Z,0.60
2023-01-17T13:03:03.721Z,0.90
2023-01-17T13:05:47.371Z,0.80
2023-01-17T13:08:40.921Z,0.40
2023-01-17T13:11:28.578Z,0.70
2023-01-17T13:13:57.500Z,0.50
2023-01-17T13:16:46.320Z,0.50
2023-01-17T13:19:29.640Z,0.80
2023-01-17T13:21:57.861Z,0.80
2023-01-17T13:24:55.579Z,0.57
2023-01-17T13:28:03.784Z,0.40
2023-01-17T13:30:58.227Z,1.23
2023-01-17T13:34:14.265Z,0.50
2023-01-17T13:37:27.039Z,1.30
2023-01-17T13:40:53.594Z,0.93
2023-01-17T13:43:34.346Z,1.20
2023-01-17T13:46:03.642Z,1.00
2023-01-17T13:48:40.980Z,0.70
2023-01-17T13:51:11.576Z,0.87
2023-01-17T13:53:41.429Z,1.00
2023-01-17T13:56:19.102Z,0.60
2023-01-17T13:58:50.150Z,0.30
2023-01-17T14:01:23.045Z,0.70
2023-01-17T14:03:50.097Z,0.70
2023-01-17T14:06:59.422Z,0.70
2023-01-17T14:09:40.865Z,0.90
2023-01-17T14:12:10.404Z,1.27
2023-01-17T14:14:40.234Z,0.70
2023-01-17T14:17:16.346Z,0.97
2023-01-17T14:19:51.978Z,0.50
2023-01-17T14:22:18.836Z,0.50
2023-01-17T14:25:17.402Z,0.57
2023-01-17T14:27:51.716Z,0.83
2023-01-17T14:30:31.915Z,0.50
2023-01-17T14:33:01.893Z,0.60
2023-01-17T14:35:37.483Z,1.13
2023-01-17T14:38:29.805Z,0.80
2023-01-17T14:41:09.592Z,1.60
2023-01-17T14:43:45.199Z,1.17
2023-01-17T14:46:29.369Z,0.90
2023-01-17T14:49:06.162Z,1.20
2023-01-17T14:51:38.454Z,1.10
2023-01-17T14:54:22.259Z,0.90
2023-01-17T14:56:52.281Z,0.63
2023-01-17T14:59:23.668Z,1.90
2023-01-17T15:02:08.156Z,4.80
2023-01-17T15:04:39.300Z,1.80
2023-01-17T15:07:07.496Z,1.10
2023-01-17T15:09:37.723Z,0.97
2023-01-17T15:12:08.450Z,0.97
2023-01-17T15:14:43.650Z,0.80
2023-01-17T15:17:26.463Z,1.67
2023-01-17T15:20:00.225Z,1.03
2023-01-17T15:22:29.626Z,0.80
2023-01-17T15:24:58.496Z,1.00
2023-01-17T15:27:26.538Z,1.63
2023-01-17T15:29:59.112Z,1.20
2023-01-17T15:32:31.077Z,1.40
2023-01-17T15:34:59.381Z,1.40
2023-01-17T15:37:39.887Z,0.83
2023-01-17T15:40:11.442Z,1.13
2023-01-17T15:42:42.503Z,0.80
2023-01-17T15:45:22.494Z,0.90
2023-01-17T15:47:49.875Z,1.10
2023-01-17T15:50:32.004Z,1.03
2023-01-17T15:53:05.093Z,0.80
2023-01-17T15:55:38.897Z,0.93
2023-01-17T15:58:27.625Z,5.10
2023-01-17T16:00:55.453Z,1.47
2023-01-17T16:03:29.499Z,1.00
2023-01-17T16:06:00.534Z,1.30
2023-01-17T16:08:40.092Z,1.00
2023-01-17T16:11:11.512Z,0.90
2023-01-17T16:13:47.247Z,0.93
2023-01-17T16:16:24.608Z,1.00
2023-01-17T16:19:00.470Z,1.30
2023-01-17T16:21:31.569Z,1.00
2023-01-17T16:23:59.732Z,1.63
2023-01-17T16:26:28.897Z,1.50
2023-01-17T16:28:55.983Z,1.40
2023-01-17T16:31:26.234Z,1.23
2023-01-17T16:33:53.609Z,4.67
2023-01-17T16:36:22.809Z,4.30
2023-01-17T16:38:51.858Z,6.93
2023-01-17T16:41:20.327Z,4.67
2023-01-17T16:44:05.298Z,4.30
2023-01-17T16:46:32.806Z,2.13
2023-01-17T16:49:01.119Z,1.90
2023-01-17T16:51:28.169Z,4.20
2023-01-17T16:53:55.224Z,4.30
2023-01-17T16:56:22.363Z,2.63
2023-01-17T16:58:53.060Z,1.67
2023-01-17T17:01:22.472Z,1.80
2023-01-17T17:03:49.708Z,3.43
2023-01-17T17:06:17.043Z,1.50
2023-01-17T17:08:44.240Z,1.60
2023-01-17T17:11:19.812Z,1.33
2023-01-17T17:13:49.450Z,1.77
2023-01-17T17:16:30.886Z,1.70
2023-01-17T17:19:05.135Z,1.97
2023-01-17T17:21:34.345Z,2.20
2023-01-17T17:24:02.369Z,2.63
2023-01-17T17:26:36.711Z,2.20
2023-01-17T17:29:06.463Z,2.60
2023-01-17T17:31:33.671Z,2.60
2023-01-17T17:34:03.894Z,2.27
2023-01-17T17:36:31.478Z,2.00
2023-01-17T17:38:59.012Z,2.60
2023-01-17T17:41:30.413Z,3.80
2023-01-17T17:43:59.997Z,4.17
2023-01-17T17:46:29.111Z,4.00
2023-01-17T17:48:58.393Z,4.03
2023-01-17T17:51:36.332Z,4.57
2023-01-17T17:54:11.061Z,4.00
2023-01-17T17:56:39.684Z,4.67
2023-01-17T17:59:09.383Z,4.00
2023-01-17T18:01:38.214Z,4.60
2023-01-17T18:04:07.439Z,3.70
2023-01-17T18:06:36.089Z,4.30
2023-01-17T18:09:03.586Z,4.03
2023-01-17T18:11:31.879Z,5.40
2023-01-17T18:14:02.597Z,5.13
2023-01-17T18:16:39.431Z,4.63
2023-01-17T18:19:06.534Z,4.40
2023-01-17T18:21:38.096Z,4.90
2023-01-17T18:24:12.866Z,4.23
2023-01-17T18:26:50.092Z,3.80
2023-01-17T18:29:21.786Z,3.90
2023-01-17T18:31:51.662Z,4.00
2023-01-17T18:34:27.053Z,3.80
2023-01-17T18:36:54.671Z,3.93
2023-01-17T18:39:27.661Z,3.93
2023-01-17T18:41:54.872Z,3.87
2023-01-17T18:44:24.664Z,4.33
2023-01-17T18:46:54.858Z,3.80
2023-01-17T18:49:22.492Z,4.27
2023-01-17T18:51:51.122Z,4.63
2023-01-17T18:54:20.458Z,4.70
2023-01-17T18:56:48.075Z,4.20
2023-01-17T18:59:18.428Z,4.57
2023-01-17T19:01:46.193Z,4.47
2023-01-17T19:04:16.366Z,4.27
2023-01-17T19:06:47.788Z,4.00
2023-01-17T19:09:16.246Z,5.67
2023-01-17T19:11:45.352Z,3.90
2023-01-17T19:14:13.261Z,4.70
2023-01-17T19:16:42.031Z,3.73
2023-01-17T19:19:14.252Z,4.70
2023-01-17T19:21:41.713Z,4.30
2023-01-17T19:24:10.848Z,4.80
2023-01-17T19:26:37.905Z,4.30
2023-01-17T19:29:06.640Z,5.33
2023-01-17T19:31:44.326Z,6.27
2023-01-17T19:34:14.137Z,4.40
2023-01-17T19:36:41.383Z,4.67
2023-01-17T19:39:11.865Z,5.23
2023-01-17T19:41:44.513Z,5.93
2023-01-17T19:44:14.280Z,6.07
2023-01-17T19:46:41.380Z,6.23
2023-01-17T19:49:09.921Z,5.90
2023-01-17T19:51:39.352Z,4.87
2023-01-17T19:54:09.426Z,5.43
2023-01-17T19:56:36.695Z,4.40
2023-01-17T19:59:04.358Z,5.33
2023-01-17T20:01:34.260Z,5.37
2023-01-17T20:04:03.763Z,4.37
2023-01-17T20:06:35.659Z,4.50
2023-01-17T20:09:05.110Z,5.43
2023-01-17T20:11:32.407Z,4.77
2023-01-17T20:14:00.286Z,4.93
2023-01-17T20:16:31.357Z,4.47
2023-01-17T20:19:00.073Z,4.40
2023-01-17T20:21:30.165Z,4.53
2023-01-17T20:23:59.973Z,4.20
2023-01-17T20:26:34.768Z,6.10
2023-01-17T20:29:11.677Z,7.47
2023-01-17T20:31:41.415Z,11.63
2023-01-17T20:34:12.513Z,21.10
2023-01-17T20:36:44.274Z,31.00
2023-01-17T20:39:14.523Z,25.20
2023-01-17T20:41:45.427Z,16.30
2023-01-17T20:44:15.372Z,5.30
2023-01-17T20:46:47.672Z,5.70
2023-01-17T20:49:19.262Z,5.73
2023-01-17T20:51:47.503Z,6.00
2023-01-17T20:54:18.867Z,5.60
2023-01-17T20:56:47.746Z,6.50
2023-01-17T20:59:21.671Z,5.87
2023-01-17T21:01:50.030Z,6.10
2023-01-17T21:04:22.881Z,5.80
2023-01-17T21:06:51.554Z,6.77
2023-01-17T21:09:21.923Z,6.40
2023-01-17T21:11:49.379Z,6.90
2023-01-17T21:14:16.512Z,6.30
2023-01-17T21:16:44.597Z,5.43
2023-01-17T21:19:14.972Z,7.00
2023-01-17T21:21:42.070Z,6.17
2023-01-17T21:24:09.777Z,5.83
2023-01-17T21:26:38.837Z,6.03
2023-01-17T21:29:05.919Z,5.87
2023-01-17T21:31:35.054Z,7.70
2023-01-17T21:34:08.559Z,8.20
2023-01-17T21:36:39.378Z,7.63
2023-01-17T21:39:18.259Z,8.50
2023-01-17T21:41:49.585Z,6.87
2023-01-17T21:44:23.241Z,9.40
2023-01-17T21:46:56.122Z,8.37
2023-01-17T21:49:24.216Z,6.30
2023-01-17T21:51:53.937Z,6.23
2023-01-17T21:54:48.439Z,6.57
2023-01-17T21:57:39.691Z,5.40
2023-01-17T22:00:14.403Z,7.03
2023-01-17T22:02:43.268Z,7.40
2023-01-17T22:05:11.406Z,7.10
2023-01-17T22:08:01.524Z,6.80
2023-01-17T22:10:28.731Z,6.67
2023-01-17T22:12:55.803Z,7.53
2023-01-17T22:15:23.352Z,6.33
2023-01-17T22:17:50.328Z,7.27
2023-01-17T22:20:18.532Z,7.20
2023-01-17T22:22:48.279Z,6.70
2023-01-17T22:25:15.548Z,6.10
2023-01-17T22:27:42.502Z,5.77
2023-01-17T22:30:12.945Z,7.40
2023-01-17T22:32:40.234Z,6.47
2023-01-17T22:35:08.209Z,8.13
2023-01-17T22:37:35.538Z,8.43
2023-01-17T22:40:04.824Z,9.23
2023-01-17T22:42:35.140Z,10.70
2023-01-17T22:45:02.655Z,10.20
2023-01-17T22:47:30.060Z,7.70
2023-01-17T22:49:57.092Z,7.40
2023-01-17T22:52:24.165Z,7.30
2023-01-17T22:54:51.275Z,6.20
2023-01-17T22:57:18.625Z,7.77
2023-01-17T22:59:45.599Z,6.80
2023-01-17T23:02:12.696Z,6.87
2023-01-17T23:04:39.791Z,6.27
2023-01-17T23:07:06.824Z,7.03
2023-01-17T23:09:33.873Z,7.80
2023-01-17T23:12:00.947Z,10.27
2023-01-17T23:14:54.515Z,7.53
2023-01-17T23:17:42.897Z,8.13
2023-01-17T23:20:11.915Z,7.87
2023-01-17T23:22:39.202Z,8.60
2023-01-17T23:25:10.934Z,6.60
2023-01-17T23:28:06.238Z,8.27
2023-01-17T23:30:39.340Z,18.40
2023-01-17T23:33:13.853Z,9.47
2023-01-17T23:35:44.843Z,9.27
2023-01-17T23:38:28.981Z,9.43
2023-01-17T23:41:26.201Z,9.07
2023-01-17T23:43:58.878Z,10.30
2023-01-17T23:46:27.110Z,14.00
2023-01-17T23:48:55.067Z,11.57
2023-01-17T23:51:22.391Z,11.17
2023-01-17T23:53:50.867Z,9.93
2023-01-17T23:56:23.011Z,10.70
2023-01-17T23:58:50.159Z,9.03
